createdAt,value
2023-03-18T00:04:01.817Z,93868.19
2023-03-18T00:09:05.785Z,93856.69
2023-03-18T00:14:10.173Z,93856.00
2023-03-18T00:19:13.512Z,93860.00
2023-03-18T00:24:17.408Z,93853.09
2023-03-18T00:29:20.805Z,93861.84
2023-03-18T00:34:24.515Z,93863.03
2023-03-18T00:39:29.367Z,93852.28
2023-03-18T00:44:33.490Z,93852.16
2023-03-18T00:49:38.016Z,93841.41
2023-03-18T00:54:41.247Z,93833.66
2023-03-18T00:59:45.016Z,93836.13
2023-03-18T01:04:48.446Z,93824.53
2023-03-18T01:09:55.248Z,93828.25
2023-03-18T01:14:59.551Z,93824.75
2023-03-18T01:20:04.253Z,93820.34
2023-03-18T01:25:10.267Z,93806.47
2023-03-18T01:30:16.469Z,93811.94
2023-03-18T01:35:20.545Z,93804.75
2023-03-18T01:40:28.951Z,93802.22
2023-03-18T01:45:35.175Z,93797.69
2023-03-18T01:50:39.132Z,93800.03
2023-03-18T01:55:44.079Z,93792.06
2023-03-18T02:00:58.409Z,93780.91
2023-03-18T02:06:03.672Z,93786.91
2023-03-18T02:11:09.275Z,93779.50
2023-03-18T02:16:34.573Z,93776.34
2023-03-18T02:21:56.705Z,93777.78
2023-03-18T02:27:30.555Z,93774.22
2023-03-18T02:32:36.162Z,93762.00
2023-03-18T02:37:40.705Z,93745.81
2023-03-18T02:42:47.093Z,93751.97
2023-03-18T02:47:54.001Z,93767.22
2023-03-18T02:52:58.018Z,93768.41
2023-03-18T02:58:01.851Z,93768.47
2023-03-18T03:03:06.007Z,93765.50
2023-03-18T03:08:10.383Z,93762.72
2023-03-18T03:13:19.310Z,93754.56
2023-03-18T03:18:23.327Z,93765.13
2023-03-18T03:23:26.547Z,93759.06
2023-03-18T03:28:32.532Z,93760.00
2023-03-18T03:33:37.867Z,93753.38
2023-03-18T03:38:42.035Z,93755.22
2023-03-18T03:43:45.811Z,93752.25
2023-03-18T03:48:49.775Z,93756.91
2023-03-18T03:53:53.520Z,93764.13
2023-03-18T03:58:57.166Z,93774.47
2023-03-18T04:04:10.072Z,93772.13
2023-03-18T04:09:13.791Z,93774.56
2023-03-18T04:14:17.683Z,93775.69
2023-03-18T04:19:21.143Z,93778.25
2023-03-18T04:24:24.578Z,93781.09
2023-03-18T04:29:28.369Z,93782.22
2023-03-18T04:34:32.305Z,93784.44
2023-03-18T04:39:36.551Z,93798.03
2023-03-18T04:44:40.221Z,93796.94
2023-03-18T04:49:44.298Z,93796.91
2023-03-18T04:54:49.129Z,93803.06
2023-03-18T04:59:55.622Z,93804.50
2023-03-18T05:05:01.051Z,93785.34
2023-03-18T05:10:09.771Z,93800.09
2023-03-18T05:15:14.650Z,93801.69
2023-03-18T05:20:23.962Z,93796.63
2023-03-18T05:25:28.475Z,93795.66
2023-03-18T05:30:32.061Z,93805.47
2023-03-18T05:35:36.781Z,93806.94
2023-03-18T05:40:41.079Z,93809.91
2023-03-18T05:45:55.566Z,93804.31
2023-03-18T05:51:09.059Z,93806.81
2023-03-18T05:56:15.200Z,93808.06
2023-03-18T06:01:20.614Z,93804.31
2023-03-18T06:06:25.115Z,93782.81
2023-03-18T06:11:29.734Z,93811.53
2023-03-18T06:16:34.267Z,93818.25
2023-03-18T06:21:40.255Z,93825.00
2023-03-18T06:26:43.796Z,93821.91
2023-03-18T06:31:47.893Z,93805.72
2023-03-18T06:36:57.172Z,93799.06
2023-03-18T06:42:04.107Z,93804.88
2023-03-18T06:47:12.357Z,93807.03
2023-03-18T06:52:24.085Z,93805.50
2023-03-18T06:57:34.940Z,93788.50
2023-03-18T07:02:39.723Z,93796.38
2023-03-18T07:07:46.551Z,93806.28
2023-03-18T07:12:50.860Z,93806.94
2023-03-18T07:17:55.598Z,93813.06
2023-03-18T07:22:59.603Z,93809.09
2023-03-18T07:28:05.995Z,93795.88
2023-03-18T07:33:09.405Z,93814.28
2023-03-18T07:38:14.209Z,93818.03
2023-03-18T07:43:18.933Z,93820.81
2023-03-18T07:48:22.149Z,93820.88
2023-03-18T07:53:25.611Z,93819.06
2023-03-18T07:58:31.880Z,93818.41
2023-03-18T08:03:37.377Z,93820.34
2023-03-18T08:08:41.405Z,93814.47
2023-03-18T08:13:45.116Z,93805.81
2023-03-18T08:18:48.719Z,93813.91
2023-03-18T08:23:52.356Z,93811.72
2023-03-18T08:28:57.017Z,93803.47
2023-03-18T08:34:00.920Z,93809.81
2023-03-18T08:39:05.804Z,93812.00
2023-03-18T08:44:11.214Z,93817.56
2023-03-18T08:49:15.065Z,93812.44
2023-03-18T08:54:19.098Z,93815.38
2023-03-18T08:59:22.799Z,93824.97
2023-03-18T09:04:26.500Z,93824.03
2023-03-18T09:09:43.178Z,93810.19
2023-03-18T09:14:47.654Z,93819.97
2023-03-18T09:19:51.237Z,93810.28
2023-03-18T09:24:54.340Z,93817.06
2023-03-18T09:29:58.278Z,93816.16
2023-03-18T09:35:01.978Z,93812.91
2023-03-18T09:40:11.053Z,93822.81
2023-03-18T09:45:25.382Z,93819.78
2023-03-18T09:50:49.647Z,93819.22
2023-03-18T09:55:56.723Z,93803.72
2023-03-18T10:01:06.814Z,93805.38
2023-03-18T10:06:19.986Z,93795.28
2023-03-18T10:11:37.506Z,93798.78
2023-03-18T10:16:58.609Z,93784.00
2023-03-18T10:22:49.912Z,93790.22
2023-03-18T10:28:14.023Z,93796.06
2023-03-18T10:33:58.832Z,93798.88
2023-03-18T10:39:03.750Z,93794.16
2023-03-18T10:44:20.312Z,93793.94
2023-03-18T10:49:51.038Z,93793.41
2023-03-18T10:54:54.873Z,93791.53
2023-03-18T10:59:59.228Z,93780.53
2023-03-18T11:05:15.680Z,93788.91
2023-03-18T11:10:26.743Z,93788.69
2023-03-18T11:15:36.215Z,93792.97
2023-03-18T11:20:47.783Z,93789.63
2023-03-18T11:25:56.306Z,93784.34
2023-03-18T11:31:06.092Z,93768.22
2023-03-18T11:36:18.134Z,93773.50
2023-03-18T11:41:26.848Z,93765.81
2023-03-18T11:46:38.995Z,93764.00
2023-03-18T11:52:00.568Z,93760.69
2023-03-18T11:57:12.128Z,93736.66
2023-03-18T12:02:25.089Z,93742.81
2023-03-18T12:08:03.674Z,93730.31
2023-03-18T12:13:07.188Z,93740.59
2023-03-18T12:18:26.569Z,93734.19
2023-03-18T12:23:50.098Z,93736.53
2023-03-18T12:29:31.092Z,93734.59
2023-03-18T12:35:11.293Z,93718.41
2023-03-18T12:40:31.490Z,93726.72
2023-03-18T12:45:42.913Z,93722.09
2023-03-18T12:50:59.629Z,93704.66
2023-03-18T12:56:30.518Z,93707.22
2023-03-18T13:01:52.830Z,93696.81
2023-03-18T13:07:05.225Z,93706.47
2023-03-18T13:12:22.515Z,93696.88
2023-03-18T13:17:26.096Z,93697.06
2023-03-18T13:22:43.362Z,93695.66
2023-03-18T13:28:05.116Z,93687.78
2023-03-18T13:33:29.826Z,93694.38
2023-03-18T13:39:05.357Z,93693.41
2023-03-18T13:44:18.253Z,93683.09
2023-03-18T13:49:25.203Z,93685.66
2023-03-18T13:54:38.138Z,93680.69
2023-03-18T13:59:41.212Z,93671.25
2023-03-18T14:04:52.295Z,93679.47
2023-03-18T14:10:18.924Z,93668.44
2023-03-18T14:15:47.542Z,93671.34
2023-03-18T14:20:55.391Z,93676.81
2023-03-18T14:26:19.977Z,93665.72
2023-03-18T14:31:33.451Z,93675.88
2023-03-18T14:36:54.880Z,93673.13
2023-03-18T14:42:02.414Z,93673.47
2023-03-18T14:47:25.341Z,93676.84
2023-03-18T14:52:42.388Z,93658.28
2023-03-18T14:57:46.697Z,93648.75
2023-03-18T15:03:00.961Z,93670.91
2023-03-18T15:08:17.915Z,93663.97
2023-03-18T15:13:24.452Z,93647.72
2023-03-18T15:18:36.485Z,93655.13
2023-03-18T15:23:43.776Z,93638.28
2023-03-18T15:28:48.309Z,93642.94
2023-03-18T15:34:05.171Z,93650.16
2023-03-18T15:39:32.558Z,93639.38
2023-03-18T15:44:40.504Z,93627.44
2023-03-18T15:49:52.071Z,93646.38
2023-03-18T15:54:55.217Z,93636.94
2023-03-18T15:59:59.110Z,93652.19
2023-03-18T16:05:27.004Z,93645.19
2023-03-18T16:10:30.627Z,93656.41
2023-03-18T16:15:34.014Z,93653.84
2023-03-18T16:20:37.586Z,93666.28
2023-03-18T16:25:41.919Z,93658.22
2023-03-18T16:30:45.261Z,93668.31
2023-03-18T16:35:59.911Z,93680.25
2023-03-18T16:41:03.640Z,93681.38
2023-03-18T16:46:07.028Z,93673.63
2023-03-18T16:51:10.974Z,93680.31
2023-03-18T16:56:21.133Z,93684.19
2023-03-18T17:01:25.578Z,93680.50
2023-03-18T17:06:29.244Z,93679.09
2023-03-18T17:11:32.484Z,93680.50
2023-03-18T17:16:36.012Z,93682.53
2023-03-18T17:21:39.818Z,93695.56
2023-03-18T17:26:44.581Z,93694.50
2023-03-18T17:31:53.836Z,93701.16
2023-03-18T17:36:57.708Z,93720.19
2023-03-18T17:42:02.638Z,93707.94
2023-03-18T17:47:06.880Z,93714.19
2023-03-18T17:52:13.252Z,93714.38
2023-03-18T17:57:19.211Z,93717.34
2023-03-18T18:02:24.453Z,93717.25
2023-03-18T18:07:28.844Z,93699.38
2023-03-18T18:12:32.504Z,93714.47
2023-03-18T18:17:36.415Z,93732.28
2023-03-18T18:22:43.397Z,93733.03
2023-03-18T18:27:48.524Z,93736.91
2023-03-18T18:33:17.164Z,93743.31
2023-03-18T18:38:20.795Z,93745.03
2023-03-18T18:43:25.581Z,93746.91
2023-03-18T18:48:34.526Z,93764.09
2023-03-18T18:53:38.281Z,93757.03
2023-03-18T18:58:42.602Z,93760.72
2023-03-18T19:03:47.212Z,93772.66
2023-03-18T19:08:50.681Z,93774.53
2023-03-18T19:13:55.455Z,93778.53
2023-03-18T19:18:59.770Z,93774.69
2023-03-18T19:24:21.115Z,93776.91
2023-03-18T19:29:25.464Z,93780.78
2023-03-18T19:34:30.127Z,93795.78
2023-03-18T19:39:34.060Z,93787.91
2023-03-18T19:44:38.106Z,93782.41
2023-03-18T19:49:41.287Z,93784.78
2023-03-18T19:54:44.628Z,93775.56
2023-03-18T19:59:50.109Z,93789.25
2023-03-18T20:04:55.526Z,93783.44
2023-03-18T20:09:59.132Z,93785.56
2023-03-18T20:15:04.860Z,93778.03
2023-03-18T20:20:23.289Z,93775.91
2023-03-18T20:25:41.316Z,93776.41
2023-03-18T20:30:46.340Z,93775.53
2023-03-18T20:35:53.221Z,93770.22
2023-03-18T20:40:57.667Z,93782.47
2023-03-18T20:46:02.590Z,93785.44
2023-03-18T20:51:25.612Z,93779.13
2023-03-18T20:56:32.723Z,93791.09
2023-03-18T21:01:36.764Z,93790.25
2023-03-18T21:06:42.423Z,93795.03
2023-03-18T21:11:46.589Z,93791.91
2023-03-18T21:16:50.502Z,93782.31
2023-03-18T21:21:53.890Z,93791.91
2023-03-18T21:27:04.678Z,93790.94
2023-03-18T21:32:26.159Z,93788.91
2023-03-18T21:37:29.351Z,93785.22
2023-03-18T21:42:34.244Z,93788.59
2023-03-18T21:47:37.419Z,93782.41
2023-03-18T21:52:40.689Z,93788.53
2023-03-18T21:57:46.925Z,93788.66
2023-03-18T22:02:52.471Z,93805.75
2023-03-18T22:07:56.354Z,93787.16
2023-03-18T22:12:59.578Z,93797.31
2023-03-18T22:18:03.445Z,93802.19
2023-03-18T22:23:14.175Z,93791.94
2023-03-18T22:28:17.493Z,93792.34
2023-03-18T22:33:30.876Z,93789.78
2023-03-18T22:38:35.193Z,93803.31
2023-03-18T22:43:38.312Z,93792.59
2023-03-18T22:48:42.072Z,93803.31
2023-03-18T22:53:49.952Z,93794.84
2023-03-18T22:58:53.595Z,93802.84
2023-03-18T23:03:56.780Z,93799.47
2023-03-18T23:09:03.537Z,93800.84
2023-03-18T23:14:07.582Z,93802.97
2023-03-18T23:19:10.776Z,93795.06
2023-03-18T23:24:15.534Z,93806.47
2023-03-18T23:29:18.870Z,93813.81
2023-03-18T23:34:22.299Z,93814.38
2023-03-18T23:39:26.007Z,93820.50
2023-03-18T23:44:29.608Z,93823.19
2023-03-18T23:49:34.038Z,93831.19
2023-03-18T23:54:39.519Z,93830.28
2023-03-18T23:59:43.798Z,93830.72
